Time;durP1;ratioP1;P1;durP2;ratioP2;P2;SDS_P1;SDS_P2;PMS_P1;PMS_P2;Temp;Humidity;BMP_temperature;BMP_pressure;BME280_temperature;BME280_humidity;BME280_pressure;Samples;Min_cycle;Max_cycle;Signal;HPM_P1;HPM_P2
2023/01/28 00:00:46;;;;;;;15.07;11.52;;;;;;;;;;10079629;28;20454;-66
2023/01/28 00:05:40;;;;;;;16.90;12.80;;;;;;;;;;10082716;28;20048;-66
2023/01/28 00:10:34;;;;;;;17.63;12.50;;;;;;;;;;10081939;28;20504;-66
2023/01/28 00:15:28;;;;;;;15.27;11.88;;;;;;;;;;10104715;28;20057;-66
2023/01/28 00:20:22;;;;;;;15.88;11.50;;;;;;;;;;10109657;28;20079;-66
2023/01/28 00:25:15;;;;;;;14.63;12.27;;;;;;;;;;10093870;28;20045;-66
2023/01/28 00:30:10;;;;;;;17.67;12.90;;;;;;;;;;10097404;28;20045;-67
2023/01/28 00:35:05;;;;;;;15.82;10.85;;;;;;;;;;10077696;28;20460;-67
2023/01/28 00:39:58;;;;;;;16.70;14.00;;;;;;;;;;10071330;28;20050;-66
2023/01/28 00:44:52;;;;;;;15.52;11.20;;;;;;;;;;10082427;28;20057;-66
2023/01/28 00:49:45;;;;;;;14.57;11.45;;;;;;;;;;10072110;28;20054;-66
2023/01/28 00:54:38;;;;;;;14.63;11.77;;;;;;;;;;10085859;28;20119;-66
2023/01/28 00:59:31;;;;;;;15.95;10.48;;;;;;;;;;10079970;28;20057;-66
2023/01/28 01:04:26;;;;;;;15.85;11.90;;;;;;;;;;10105227;28;20034;-66
2023/01/28 01:09:21;;;;;;;18.60;12.15;;;;;;;;;;10130050;28;20053;-66
2023/01/28 01:14:14;;;;;;;12.10;10.85;;;;;;;;;;10101727;28;20079;-66
2023/01/28 01:19:08;;;;;;;17.95;12.60;;;;;;;;;;10095746;28;20050;-66
2023/01/28 01:24:00;;;;;;;15.63;11.85;;;;;;;;;;10074369;28;20056;-66
2023/01/28 01:28:54;;;;;;;15.63;11.70;;;;;;;;;;10114289;28;20069;-66
2023/01/28 01:33:48;;;;;;;16.75;12.82;;;;;;;;;;10083886;28;20081;-66
2023/01/28 01:38:41;;;;;;;13.98;10.98;;;;;;;;;;10075594;28;20069;-66
2023/01/28 01:44:04;;;;;;;17.08;13.48;;;;;;;;;;10085993;28;20053;-66
2023/01/28 01:49:12;;;;;;;13.27;11.43;;;;;;;;;;10070153;28;20061;-66
2023/01/28 01:54:08;;;;;;;16.50;11.37;;;;;;;;;;10102470;28;20095;-65
2023/01/28 01:59:01;;;;;;;14.25;10.43;;;;;;;;;;10104614;28;20717;-64
2023/01/28 02:04:22;;;;;;;16.33;11.98;;;;;;;;;;10120126;28;20040;-64
2023/01/28 02:09:23;;;;;;;13.57;11.67;;;;;;;;;;10097114;28;20059;-65
2023/01/28 02:14:16;;;;;;;17.90;12.52;;;;;;;;;;10105354;28;20507;-65
2023/01/28 02:19:26;;;;;;;13.00;11.23;;;;;;;;;;10086779;28;20053;-64
2023/01/28 02:24:37;;;;;;;13.18;11.70;;;;;;;;;;10090387;28;20084;-64
2023/01/28 02:30:04;;;;;;;17.60;10.82;;;;;;;;;;10108901;28;20045;-65
2023/01/28 02:35:17;;;;;;;15.82;13.02;;;;;;;;;;10071043;28;20054;-65
2023/01/28 02:41:04;;;;;;;13.43;10.90;;;;;;;;;;10052556;28;20514;-65
2023/01/28 02:51:17;;;;;;;14.70;11.68;;;;;;;;;;10086645;28;20061;-65
2023/01/28 02:56:31;;;;;;;16.50;12.35;;;;;;;;;;10064281;28;20063;-65
2023/01/28 03:01:40;;;;;;;;;;;;;;;;;;10105912;28;20517;-63
2023/01/28 03:06:37;;;;;;;15.68;11.88;;;;;;;;;;10088249;28;19928;-66
2023/01/28 03:38:57;;;;;;;13.13;11.07;;;;;;;;;;10055911;28;20545;-65
2023/01/28 03:43:52;;;;;;;11.95;9.35;;;;;;;;;;10082311;28;20051;-65
2023/01/28 03:48:45;;;;;;;17.83;11.45;;;;;;;;;;10075244;28;20395;-65
2023/01/28 03:53:40;;;;;;;19.77;12.02;;;;;;;;;;10085947;28;20079;-65
2023/01/28 03:58:52;;;;;;;13.55;11.40;;;;;;;;;;10110861;28;20497;-65
2023/01/28 04:03:48;;;;;;;17.08;13.00;;;;;;;;;;10111842;28;20047;-66
2023/01/28 04:08:51;;;;;;;18.17;12.05;;;;;;;;;;10086332;28;20464;-66
2023/01/28 04:13:52;;;;;;;15.65;13.30;;;;;;;;;;10076407;28;20506;-65
2023/01/28 04:18:47;;;;;;;16.02;11.95;;;;;;;;;;10074420;28;20077;-65
2023/01/28 04:23:41;;;;;;;18.10;15.80;;;;;;;;;;10098177;28;20087;-65
2023/01/28 04:28:37;;;;;;;20.30;16.13;;;;;;;;;;10076389;28;20531;-65
2023/01/28 04:33:30;;;;;;;23.02;16.75;;;;;;;;;;10071344;28;20046;-65
2023/01/28 04:38:43;;;;;;;25.83;18.77;;;;;;;;;;10077506;28;20115;-65
2023/01/28 04:43:52;;;;;;;20.90;17.48;;;;;;;;;;10081781;28;20391;-65
2023/01/28 04:49:12;;;;;;;20.40;16.63;;;;;;;;;;10075271;28;20060;-65
2023/01/28 04:54:24;;;;;;;21.48;16.95;;;;;;;;;;10102516;28;20413;-65
2023/01/28 04:59:22;;;;;;;24.00;19.20;;;;;;;;;;10108329;28;20053;-64
2023/01/28 05:04:16;;;;;;;23.30;20.20;;;;;;;;;;10090115;28;20053;-65
2023/01/28 05:09:10;;;;;;;21.10;16.95;;;;;;;;;;10090223;28;20520;-65
2023/01/28 05:14:05;;;;;;;19.77;17.60;;;;;;;;;;10095058;28;20110;-64
2023/01/28 05:19:05;;;;;;;20.95;16.17;;;;;;;;;;10098254;28;20047;-65
2023/01/28 05:24:05;;;;;;;19.05;15.90;;;;;;;;;;10091422;28;20045;-65
2023/01/28 05:28:59;;;;;;;23.85;19.27;;;;;;;;;;10079934;28;20069;-65
2023/01/28 05:33:52;;;;;;;26.13;19.58;;;;;;;;;;10079566;28;20107;-64
2023/01/28 05:38:47;;;;;;;18.88;15.57;;;;;;;;;;10093647;28;20061;-65
2023/01/28 05:43:40;;;;;;;18.08;15.65;;;;;;;;;;10087333;28;20094;-65
2023/01/28 05:48:51;;;;;;;17.73;14.38;;;;;;;;;;10104049;28;20053;-65
2023/01/28 05:54:13;;;;;;;16.42;13.77;;;;;;;;;;10075470;28;20065;-64
2023/01/28 05:59:10;;;;;;;17.88;13.95;;;;;;;;;;10088745;28;20049;-65
2023/01/28 06:04:06;;;;;;;18.77;15.00;;;;;;;;;;10113558;28;20080;-65
2023/01/28 06:08:59;;;;;;;19.17;15.73;;;;;;;;;;10110324;28;20041;-64
2023/01/28 06:13:55;;;;;;;17.17;14.82;;;;;;;;;;10090892;28;20531;-63
2023/01/28 06:18:52;;;;;;;21.50;14.75;;;;;;;;;;10089850;28;20040;-66
2023/01/28 06:23:47;;;;;;;20.52;15.80;;;;;;;;;;10089894;28;20068;-65
2023/01/28 06:28:40;;;;;;;17.13;14.43;;;;;;;;;;10096186;28;20038;-65
2023/01/28 06:33:33;;;;;;;21.15;15.27;;;;;;;;;;10100849;28;20049;-65
2023/01/28 06:38:26;;;;;;;18.88;14.55;;;;;;;;;;10098055;28;20091;-65
2023/01/28 06:43:20;;;;;;;20.25;15.68;;;;;;;;;;10090831;28;20457;-65
2023/01/28 06:48:13;;;;;;;21.10;16.20;;;;;;;;;;10084670;28;20053;-64
2023/01/28 06:53:07;;;;;;;20.73;14.35;;;;;;;;;;10087402;28;20391;-64
2023/01/28 06:58:01;;;;;;;17.25;15.45;;;;;;;;;;10097155;28;20148;-65
2023/01/28 07:02:56;;;;;;;20.08;15.98;;;;;;;;;;10097544;28;20083;-64
2023/01/28 07:07:50;;;;;;;22.02;16.48;;;;;;;;;;10100981;28;20418;-64
2023/01/28 07:12:43;;;;;;;25.48;19.15;;;;;;;;;;10089553;28;20572;-66
2023/01/28 07:17:41;;;;;;;24.33;17.55;;;;;;;;;;10083778;28;20561;-64
2023/01/28 07:22:34;;;;;;;21.42;15.07;;;;;;;;;;10090954;28;20052;-66
2023/01/28 07:27:27;;;;;;;19.98;15.00;;;;;;;;;;10087499;28;20071;-65
2023/01/28 07:32:22;;;;;;;29.70;16.33;;;;;;;;;;10082196;28;20053;-65
2023/01/28 07:37:16;;;;;;;17.02;14.13;;;;;;;;;;10087359;28;20060;-64
2023/01/28 07:42:09;;;;;;;25.40;16.35;;;;;;;;;;10098407;28;20114;-64
2023/01/28 07:47:10;;;;;;;22.27;17.70;;;;;;;;;;10115795;28;20055;-64
2023/01/28 07:52:04;;;;;;;18.73;14.35;;;;;;;;;;10089069;28;20079;-63
2023/01/28 07:56:58;;;;;;;16.90;14.43;;;;;;;;;;10089437;28;20099;-63
2023/01/28 08:01:53;;;;;;;18.55;15.23;;;;;;;;;;10088692;28;20049;-62
2023/01/28 08:06:47;;;;;;;17.00;13.60;;;;;;;;;;10075647;28;20065;-63
2023/01/28 08:11:39;;;;;;;21.08;14.20;;;;;;;;;;10078918;28;20049;-63
2023/01/28 08:16:33;;;;;;;20.23;16.08;;;;;;;;;;10081071;28;20518;-72
2023/01/28 08:21:26;;;;;;;19.05;15.80;;;;;;;;;;10083453;28;20156;-64
2023/01/28 08:26:19;;;;;;;20.40;16.25;;;;;;;;;;10081285;28;20084;-62
2023/01/28 08:31:13;;;;;;;22.33;18.23;;;;;;;;;;10088544;28;20049;-63
2023/01/28 08:36:08;;;;;;;22.67;17.38;;;;;;;;;;10076438;28;20525;-63
2023/01/28 08:41:02;;;;;;;22.23;17.10;;;;;;;;;;10104204;28;20072;-63
2023/01/28 08:45:56;;;;;;;23.88;19.38;;;;;;;;;;10098902;28;20119;-63
2023/01/28 08:50:49;;;;;;;24.65;18.30;;;;;;;;;;10074195;28;20061;-64
2023/01/28 08:55:44;;;;;;;22.50;18.13;;;;;;;;;;10076608;28;20129;-63
2023/01/28 09:00:38;;;;;;;23.15;17.60;;;;;;;;;;10085902;28;20524;-63
2023/01/28 09:05:32;;;;;;;20.30;15.90;;;;;;;;;;10090590;28;20056;-63
2023/01/28 09:10:27;;;;;;;20.75;16.48;;;;;;;;;;10082102;28;20053;-63
2023/01/28 09:15:20;;;;;;;18.88;15.57;;;;;;;;;;10100217;28;20536;-64
2023/01/28 09:20:13;;;;;;;18.60;14.48;;;;;;;;;;10084073;28;20049;-66
2023/01/28 09:25:08;;;;;;;24.85;19.48;;;;;;;;;;10080753;28;20038;-64
2023/01/28 09:30:02;;;;;;;29.45;23.30;;;;;;;;;;10076869;28;20053;-68
2023/01/28 09:34:56;;;;;;;26.17;21.73;;;;;;;;;;10082929;28;20057;-66
2023/01/28 09:39:50;;;;;;;21.35;16.40;;;;;;;;;;10096549;28;20053;-66
2023/01/28 09:45:00;;;;;;;21.85;17.85;;;;;;;;;;10091298;28;20128;-69
2023/01/28 09:49:56;;;;;;;19.80;14.82;;;;;;;;;;10083567;28;20052;-69
2023/01/28 09:55:04;;;;;;;21.85;14.90;;;;;;;;;;10109366;28;20567;-69
2023/01/28 10:00:01;;;;;;;17.02;12.75;;;;;;;;;;10096273;28;20053;-68
2023/01/28 10:05:02;;;;;;;19.15;13.70;;;;;;;;;;10103749;28;20045;-70
2023/01/28 10:09:54;;;;;;;19.23;13.23;;;;;;;;;;10090812;28;20064;-67
2023/01/28 10:15:18;;;;;;;19.13;15.30;;;;;;;;;;10076855;28;20073;-69
2023/01/28 10:20:11;;;;;;;16.67;13.88;;;;;;;;;;10091770;28;20052;-69
2023/01/28 10:25:07;;;;;;;15.55;12.60;;;;;;;;;;10094383;28;20049;-70
2023/01/28 10:30:19;;;;;;;17.75;14.60;;;;;;;;;;10101133;28;20049;-68
2023/01/28 10:35:12;;;;;;;15.98;12.75;;;;;;;;;;10093952;28;20546;-68
2023/01/28 10:40:12;;;;;;;20.65;16.25;;;;;;;;;;10098008;28;20458;-68
2023/01/28 10:45:07;;;;;;;22.38;15.77;;;;;;;;;;10090645;28;20483;-69
2023/01/28 10:50:00;;;;;;;19.55;13.18;;;;;;;;;;10093245;28;20397;-70
2023/01/28 10:55:20;;;;;;;18.20;16.30;;;;;;;;;;10095216;28;20067;-71
2023/01/28 11:00:23;;;;;;;18.27;12.68;;;;;;;;;;10087929;28;20061;-69
2023/01/28 11:05:21;;;;;;;18.13;13.80;;;;;;;;;;10078469;28;20037;-69
2023/01/28 11:10:26;;;;;;;16.70;14.32;;;;;;;;;;10095301;28;20056;-67
2023/01/28 11:15:19;;;;;;;19.92;15.02;;;;;;;;;;10095010;28;20472;-66
2023/01/28 11:20:20;;;;;;;20.77;15.35;;;;;;;;;;10091025;28;20054;-67
2023/01/28 11:25:34;;;;;;;21.45;13.85;;;;;;;;;;10084901;28;20049;-67
2023/01/28 11:30:40;;;;;;;20.70;15.00;;;;;;;;;;10083421;28;20412;-68
2023/01/28 11:35:34;;;;;;;17.90;15.30;;;;;;;;;;10087725;28;20057;-67
2023/01/28 11:40:26;;;;;;;24.20;18.10;;;;;;;;;;10098033;28;20177;-67
2023/01/28 11:45:43;;;;;;;193.65;105.15;;;;;;;;;;10089911;28;20141;-68
2023/01/28 11:50:49;;;;;;;174.82;102.50;;;;;;;;;;10100157;28;20102;-69
2023/01/28 11:56:09;;;;;;;44.83;36.38;;;;;;;;;;10092841;28;20137;-69
2023/01/28 12:01:12;;;;;;;35.28;27.50;;;;;;;;;;10091054;28;20041;-69
2023/01/28 12:06:21;;;;;;;21.20;17.63;;;;;;;;;;10103642;28;20050;-69
2023/01/28 12:12:10;;;;;;;18.08;14.68;;;;;;;;;;10087543;28;20046;-68
2023/01/28 12:16:57;;;;;;;20.52;18.05;;;;;;;;;;10079623;28;20518;-68
2023/01/28 12:22:38;;;;;;;19.05;16.30;;;;;;;;;;10079609;28;20144;-67
2023/01/28 12:27:34;;;;;;;19.23;15.00;;;;;;;;;;10091997;28;20470;-67
2023/01/28 12:32:49;;;;;;;21.90;13.90;;;;;;;;;;10092943;28;20041;-67
2023/01/28 12:37:54;;;;;;;19.25;16.00;;;;;;;;;;10099643;28;20677;-68
2023/01/28 12:43:01;;;;;;;20.42;14.98;;;;;;;;;;10097740;28;20401;-67
2023/01/28 12:48:24;;;;;;;18.60;14.65;;;;;;;;;;10093402;28;20076;-66
2023/01/28 12:53:21;;;;;;;21.70;14.80;;;;;;;;;;10088579;28;20494;-67
2023/01/28 12:58:17;;;;;;;19.08;15.30;;;;;;;;;;10090624;28;20083;-67
2023/01/28 13:03:26;;;;;;;19.33;15.45;;;;;;;;;;10091722;28;20049;-70
2023/01/28 13:08:25;;;;;;;25.77;16.55;;;;;;;;;;10103353;28;20064;-66
2023/01/28 13:13:27;;;;;;;21.25;15.10;;;;;;;;;;10093335;28;20131;-68
2023/01/28 13:18:33;;;;;;;21.60;16.48;;;;;;;;;;10103536;28;20064;-68
2023/01/28 13:23:43;;;;;;;20.08;14.32;;;;;;;;;;10093066;28;20438;-70
2023/01/28 13:28:36;;;;;;;22.90;14.57;;;;;;;;;;10094483;28;20054;-69
2023/01/28 13:33:31;;;;;;;21.15;14.88;;;;;;;;;;10085514;28;20154;-70
2023/01/28 13:38:25;;;;;;;21.95;16.33;;;;;;;;;;10114865;28;20045;-69
2023/01/28 13:43:36;;;;;;;22.75;17.60;;;;;;;;;;10096808;28;20076;-69
2023/01/28 13:48:32;;;;;;;16.05;13.52;;;;;;;;;;10098151;28;20052;-77
2023/01/28 13:54:07;;;;;;;22.70;15.52;;;;;;;;;;10086612;28;20077;-69
2023/01/28 13:59:27;;;;;;;19.70;15.75;;;;;;;;;;10084139;28;20074;-67
2023/01/28 14:04:39;;;;;;;21.52;16.42;;;;;;;;;;10084208;28;20072;-68
2023/01/28 14:10:04;;;;;;;22.73;15.48;;;;;;;;;;10094626;28;20091;-69
2023/01/28 14:15:21;;;;;;;22.65;17.38;;;;;;;;;;10086918;28;20044;-70
2023/01/28 14:20:36;;;;;;;25.80;16.17;;;;;;;;;;10091598;28;20053;-70
2023/01/28 14:25:40;;;;;;;24.63;16.83;;;;;;;;;;10092753;28;20068;-71
2023/01/28 14:30:54;;;;;;;19.40;14.88;;;;;;;;;;10091869;28;20072;-70
2023/01/28 14:35:55;;;;;;;20.52;14.75;;;;;;;;;;10095693;28;20049;-69
2023/01/28 14:40:51;;;;;;;19.52;14.23;;;;;;;;;;10092375;28;20051;-68
2023/01/28 14:45:50;;;;;;;19.35;14.13;;;;;;;;;;10093670;28;20057;-66
2023/01/28 14:51:36;;;;;;;17.08;13.82;;;;;;;;;;10096512;28;20049;-68
2023/01/28 14:57:07;;;;;;;21.30;14.38;;;;;;;;;;10043031;28;20511;-67
2023/01/28 15:02:01;;;;;;;18.70;14.02;;;;;;;;;;10077780;28;20533;-68
2023/01/28 15:07:02;;;;;;;20.95;15.35;;;;;;;;;;10088190;28;20143;-68
2023/01/28 15:11:57;;;;;;;21.63;14.93;;;;;;;;;;10084987;28;20053;-68
2023/01/28 15:16:50;;;;;;;20.77;13.95;;;;;;;;;;10078485;28;20135;-69
2023/01/28 15:21:45;;;;;;;17.95;14.15;;;;;;;;;;10092258;28;20124;-69
2023/01/28 15:26:38;;;;;;;18.65;14.75;;;;;;;;;;10085745;28;20040;-69
2023/01/28 15:31:39;;;;;;;21.23;15.88;;;;;;;;;;10083548;28;20036;-69
2023/01/28 15:36:41;;;;;;;18.80;14.02;;;;;;;;;;10086505;28;20176;-69
2023/01/28 15:41:42;;;;;;;21.45;16.42;;;;;;;;;;10086965;28;20142;-71
2023/01/28 15:46:41;;;;;;;21.70;13.60;;;;;;;;;;10091471;28;20088;-67
2023/01/28 15:51:39;;;;;;;20.83;14.32;;;;;;;;;;10085098;28;20063;-68
2023/01/28 15:56:36;;;;;;;21.23;16.30;;;;;;;;;;10080321;28;20102;-71
2023/01/28 16:01:35;;;;;;;19.55;15.20;;;;;;;;;;10034394;28;20054;-71
2023/01/28 16:06:40;;;;;;;22.33;16.83;;;;;;;;;;10033793;28;20069;-69
2023/01/28 16:11:43;;;;;;;23.58;17.13;;;;;;;;;;10042655;28;20132;-70
2023/01/28 16:16:37;;;;;;;18.50;16.42;;;;;;;;;;10050570;28;20387;-70
2023/01/28 16:21:37;;;;;;;21.55;16.02;;;;;;;;;;10049147;28;20045;-70
2023/01/28 16:26:33;;;;;;;30.92;18.50;;;;;;;;;;10050932;28;20060;-70
2023/01/28 16:31:26;;;;;;;18.75;13.93;;;;;;;;;;10050960;28;20065;-70
2023/01/28 16:36:20;;;;;;;18.30;14.55;;;;;;;;;;10058076;28;20445;-71
2023/01/28 16:41:24;;;;;;;23.95;18.52;;;;;;;;;;10050834;28;20054;-67
2023/01/28 16:46:17;;;;;;;21.67;15.63;;;;;;;;;;10046738;28;20088;-68
2023/01/28 16:51:16;;;;;;;25.08;18.05;;;;;;;;;;10079466;28;20583;-68
2023/01/28 16:56:24;;;;;;;24.23;16.67;;;;;;;;;;10096374;28;20049;-72
2023/01/28 17:02:16;;;;;;;19.83;14.65;;;;;;;;;;10100133;28;20529;-67
2023/01/28 17:07:29;;;;;;;21.15;15.55;;;;;;;;;;10097552;28;20132;-68
2023/01/28 17:12:22;;;;;;;19.98;15.40;;;;;;;;;;10089654;28;20417;-69
2023/01/28 17:17:15;;;;;;;19.55;14.75;;;;;;;;;;10088133;28;20079;-68
2023/01/28 17:22:09;;;;;;;24.23;16.98;;;;;;;;;;10093790;28;20502;-70
2023/01/28 17:27:04;;;;;;;18.67;15.23;;;;;;;;;;10093079;28;20054;-69
2023/01/28 17:31:58;;;;;;;19.98;13.65;;;;;;;;;;10091139;28;20069;-69
2023/01/28 17:36:51;;;;;;;24.45;14.30;;;;;;;;;;10103072;28;20052;-69
2023/01/28 17:41:45;;;;;;;18.63;14.43;;;;;;;;;;10097566;28;20053;-68
2023/01/28 17:46:38;;;;;;;23.98;16.27;;;;;;;;;;10082361;28;20037;-70
2023/01/28 17:51:32;;;;;;;24.90;14.82;;;;;;;;;;10102619;28;20452;-69
2023/01/28 17:56:28;;;;;;;22.83;15.48;;;;;;;;;;10103680;28;20582;-68
2023/01/28 18:01:23;;;;;;;18.50;14.20;;;;;;;;;;10087551;28;20129;-69
2023/01/28 18:06:16;;;;;;;21.42;15.88;;;;;;;;;;10096618;28;20548;-68
2023/01/28 18:11:13;;;;;;;19.80;15.48;;;;;;;;;;10096472;28;20114;-68
2023/01/28 18:16:08;;;;;;;21.30;15.15;;;;;;;;;;10091200;28;20045;-70
2023/01/28 18:21:04;;;;;;;20.80;16.08;;;;;;;;;;10080507;28;20056;-70
2023/01/28 18:25:58;;;;;;;32.67;28.48;;;;;;;;;;10081372;28;20037;-69
2023/01/28 18:30:51;;;;;;;19.92;15.57;;;;;;;;;;10095485;28;20083;-69
2023/01/28 18:35:46;;;;;;;35.15;22.88;;;;;;;;;;10081927;28;20041;-68
2023/01/28 18:40:45;;;;;;;32.33;23.83;;;;;;;;;;10067892;28;20533;-69
2023/01/28 18:45:39;;;;;;;28.50;21.75;;;;;;;;;;10098490;28;20045;-69
2023/01/28 18:50:33;;;;;;;30.52;21.15;;;;;;;;;;10092301;28;20064;-68
2023/01/28 18:55:26;;;;;;;33.33;21.30;;;;;;;;;;10076983;28;20414;-68
2023/01/28 19:00:20;;;;;;;35.47;24.92;;;;;;;;;;10083422;28;20057;-68
2023/01/28 19:05:15;;;;;;;47.47;36.92;;;;;;;;;;10090597;28;20056;-68
2023/01/28 19:10:10;;;;;;;48.70;36.58;;;;;;;;;;10086392;28;20048;-68
2023/01/28 19:15:02;;;;;;;56.83;40.08;;;;;;;;;;10081152;28;20115;-68
2023/01/28 19:19:55;;;;;;;42.13;31.45;;;;;;;;;;10093836;28;20095;-68
2023/01/28 19:24:48;;;;;;;37.65;31.08;;;;;;;;;;10093693;28;20041;-69
2023/01/28 19:29:42;;;;;;;47.60;29.02;;;;;;;;;;10092966;28;20056;-68
2023/01/28 19:34:35;;;;;;;42.90;30.80;;;;;;;;;;10097120;28;20140;-68
2023/01/28 19:39:30;;;;;;;43.15;33.55;;;;;;;;;;10087559;28;20540;-68
2023/01/28 19:44:23;;;;;;;48.95;34.10;;;;;;;;;;10081670;28;20051;-69
2023/01/28 19:49:16;;;;;;;47.72;32.85;;;;;;;;;;10081577;28;20049;-73
2023/01/28 19:54:10;;;;;;;43.88;32.13;;;;;;;;;;10087450;28;20472;-68
2023/01/28 19:59:04;;;;;;;43.92;30.33;;;;;;;;;;10094376;28;20045;-69
2023/01/28 20:03:59;;;;;;;47.63;32.58;;;;;;;;;;10093493;28;20061;-69
2023/01/28 20:08:55;;;;;;;36.22;26.25;;;;;;;;;;10091909;28;20410;-71
2023/01/28 20:13:51;;;;;;;39.17;26.83;;;;;;;;;;10087252;28;20045;-69
2023/01/28 20:18:55;;;;;;;37.63;26.25;;;;;;;;;;10089903;28;20045;-70
2023/01/28 20:23:50;;;;;;;36.17;25.52;;;;;;;;;;10096117;28;20693;-69
2023/01/28 20:28:43;;;;;;;32.67;27.10;;;;;;;;;;10104995;28;20059;-69
2023/01/28 20:33:38;;;;;;;43.60;32.45;;;;;;;;;;10098124;28;20076;-69
2023/01/28 20:38:34;;;;;;;37.30;25.23;;;;;;;;;;10100729;28;20044;-69
2023/01/28 20:43:28;;;;;;;40.95;31.52;;;;;;;;;;10098334;28;20037;-69
2023/01/28 20:48:24;;;;;;;40.92;32.47;;;;;;;;;;10096461;28;20085;-69
2023/01/28 20:53:17;;;;;;;47.47;32.08;;;;;;;;;;10101764;28;20049;-72
2023/01/28 20:58:12;;;;;;;41.05;30.83;;;;;;;;;;10095106;28;20049;-69
2023/01/28 21:03:05;;;;;;;33.92;26.52;;;;;;;;;;10097636;28;20140;-68
2023/01/28 21:07:58;;;;;;;40.10;27.88;;;;;;;;;;10098905;28;20080;-69
2023/01/28 21:12:51;;;;;;;36.90;27.20;;;;;;;;;;10098653;28;20478;-68
2023/01/28 21:17:44;;;;;;;35.20;26.25;;;;;;;;;;10094797;28;20053;-69
2023/01/28 21:22:37;;;;;;;27.58;23.33;;;;;;;;;;10097358;28;20348;-68
2023/01/28 21:27:34;;;;;;;32.20;22.88;;;;;;;;;;10097675;28;20080;-69
2023/01/28 21:32:29;;;;;;;28.15;23.08;;;;;;;;;;10093832;28;20045;-67
2023/01/28 21:37:22;;;;;;;29.88;23.75;;;;;;;;;;10074586;28;20128;-69
2023/01/28 21:42:16;;;;;;;26.70;20.48;;;;;;;;;;10099375;28;20053;-68
2023/01/28 21:47:09;;;;;;;26.63;20.73;;;;;;;;;;10094042;28;20045;-69
2023/01/28 21:52:06;;;;;;;36.05;26.80;;;;;;;;;;10078312;28;20057;-69
2023/01/28 21:56:58;;;;;;;37.17;28.25;;;;;;;;;;10078372;28;20576;-69
2023/01/28 22:01:58;;;;;;;31.00;26.52;;;;;;;;;;10076072;28;20469;-69
2023/01/28 22:06:53;;;;;;;34.65;25.85;;;;;;;;;;10071432;28;20534;-69
2023/01/28 22:11:46;;;;;;;34.88;25.15;;;;;;;;;;10077099;28;20453;-69
2023/01/28 22:16:40;;;;;;;37.95;24.67;;;;;;;;;;10083098;28;20264;-69
2023/01/28 22:21:39;;;;;;;25.63;21.67;;;;;;;;;;10076890;28;20076;-69
2023/01/28 22:26:33;;;;;;;26.42;21.73;;;;;;;;;;10084309;28;20036;-70
2023/01/28 22:31:27;;;;;;;29.27;21.52;;;;;;;;;;10079332;28;20144;-69
2023/01/28 22:36:22;;;;;;;29.85;21.23;;;;;;;;;;10078161;28;20041;-69
2023/01/28 22:41:22;;;;;;;33.22;23.20;;;;;;;;;;10078864;28;20387;-68
2023/01/28 22:46:14;;;;;;;;;;;;;;;;;;10085815;28;20055;-69
2023/01/28 22:51:22;;;;;;;31.77;23.70;;;;;;;;;;10102967;28;19933;-68
2023/01/28 22:56:17;;;;;;;46.65;33.65;;;;;;;;;;10080888;28;20531;-69
2023/01/28 23:01:14;;;;;;;40.30;28.08;;;;;;;;;;10103394;28;20041;-68
2023/01/28 23:06:07;;;;;;;35.67;27.60;;;;;;;;;;10100763;28;20494;-69
2023/01/28 23:11:01;;;;;;;44.03;31.35;;;;;;;;;;10086039;28;20049;-69
2023/01/28 23:26:28;;;;;;;37.40;26.50;;;;;;;;;;10075888;28;20103;-69
2023/01/28 23:31:22;;;;;;;36.45;25.15;;;;;;;;;;10076511;28;20040;-69
2023/01/28 23:36:15;;;;;;;40.70;28.27;;;;;;;;;;10079072;28;20056;-69
2023/01/28 23:41:08;;;;;;;37.55;25.80;;;;;;;;;;10074038;28;20060;-69
2023/01/28 23:46:02;;;;;;;36.42;25.88;;;;;;;;;;10075465;28;20068;-69
2023/01/28 23:50:55;;;;;;;37.03;27.67;;;;;;;;;;10075520;28;20062;-69
2023/01/28 23:55:49;;;;;;;33.38;26.60;;;;;;;;;;10075493;28;20042;-69
